createdAt,value
2023-05-02T00:00:18.596Z,45.33
2023-05-02T00:03:07.769Z,45.56
2023-05-02T00:05:37.329Z,45.70
2023-05-02T00:08:06.430Z,45.81
2023-05-02T00:10:35.540Z,45.68
2023-05-02T00:13:04.546Z,45.69
2023-05-02T00:15:33.566Z,45.69
2023-05-02T00:18:02.731Z,45.60
2023-05-02T00:20:31.823Z,45.72
2023-05-02T00:23:00.918Z,45.64
2023-05-02T00:25:30.140Z,45.91
2023-05-02T00:27:59.216Z,45.95
2023-05-02T00:30:28.281Z,46.10
2023-05-02T00:32:57.385Z,46.28
2023-05-02T00:35:26.536Z,46.44
2023-05-02T00:37:55.563Z,46.43
2023-05-02T00:40:24.611Z,46.63
2023-05-02T00:42:53.670Z,46.81
2023-05-02T00:45:22.810Z,47.23
2023-05-02T00:47:52.046Z,47.45
2023-05-02T00:50:21.214Z,47.57
2023-05-02T00:52:50.341Z,47.58
2023-05-02T00:55:21.393Z,47.73
2023-05-02T00:57:50.429Z,47.67
2023-05-02T01:00:19.749Z,47.71
2023-05-02T01:02:53.544Z,47.76
2023-05-02T01:05:27.533Z,47.78
2023-05-02T01:08:03.261Z,47.79
2023-05-02T01:10:37.934Z,47.85
2023-05-02T01:13:08.959Z,48.26
2023-05-02T01:15:40.702Z,48.25
2023-05-02T01:18:12.424Z,48.36
2023-05-02T01:20:44.211Z,48.38
2023-05-02T01:23:17.350Z,48.54
2023-05-02T01:25:54.789Z,48.48
2023-05-02T01:28:29.269Z,48.16
2023-05-02T01:30:59.393Z,48.39
2023-05-02T01:33:28.923Z,48.68
2023-05-02T01:35:59.088Z,49.00
2023-05-02T01:38:29.586Z,49.01
2023-05-02T01:40:59.105Z,49.25
2023-05-02T01:43:28.153Z,49.48
2023-05-02T01:45:57.676Z,49.42
2023-05-02T01:48:27.545Z,49.96
2023-05-02T01:50:57.686Z,49.82
2023-05-02T01:53:28.769Z,49.72
2023-05-02T01:55:59.385Z,49.91
2023-05-02T01:58:29.450Z,50.93
2023-05-02T02:00:59.922Z,51.18
2023-05-02T02:03:30.088Z,50.77
2023-05-02T02:05:59.717Z,50.68
2023-05-02T02:08:28.892Z,50.64
2023-05-02T02:11:00.373Z,51.04
2023-05-02T02:13:31.739Z,50.98
2023-05-02T02:16:02.294Z,51.23
2023-05-02T02:18:35.600Z,51.81
2023-05-02T02:21:06.707Z,51.51
2023-05-02T02:23:36.818Z,51.80
2023-05-02T02:26:07.632Z,52.18
2023-05-02T02:28:36.802Z,52.18
2023-05-02T02:31:05.942Z,52.89
2023-05-02T02:33:35.086Z,52.74
2023-05-02T02:36:07.322Z,53.35
2023-05-02T02:38:41.671Z,54.13
2023-05-02T02:41:14.485Z,54.01
2023-05-02T02:43:48.385Z,54.20
2023-05-02T02:46:25.866Z,55.18
2023-05-02T02:48:56.699Z,54.28
2023-05-02T02:51:30.047Z,54.27
2023-05-02T02:54:01.187Z,54.77
2023-05-02T02:56:36.437Z,54.77
2023-05-02T02:59:09.983Z,55.21
2023-05-02T03:01:41.858Z,55.38
2023-05-02T03:04:12.100Z,55.78
2023-05-02T03:06:41.545Z,55.38
2023-05-02T03:09:16.046Z,55.61
2023-05-02T03:11:45.185Z,55.78
2023-05-02T03:14:14.225Z,55.83
2023-05-02T03:16:43.338Z,55.65
2023-05-02T03:19:12.472Z,56.12
2023-05-02T03:21:41.809Z,56.56
2023-05-02T03:24:10.895Z,56.69
2023-05-02T03:26:39.970Z,56.72
2023-05-02T03:29:09.046Z,57.42
2023-05-02T03:31:38.190Z,56.92
2023-05-02T03:34:07.293Z,57.60
2023-05-02T03:36:36.328Z,57.78
2023-05-02T03:39:05.451Z,57.82
2023-05-02T03:41:34.598Z,57.52
2023-05-02T03:44:03.762Z,57.56
2023-05-02T03:46:32.965Z,57.63
2023-05-02T03:49:01.981Z,57.68
2023-05-02T03:51:31.043Z,57.90
2023-05-02T03:54:00.172Z,58.48
2023-05-02T03:56:29.235Z,57.85
2023-05-02T03:58:58.267Z,57.87
2023-05-02T04:01:27.333Z,57.68
2023-05-02T04:03:56.374Z,58.30
2023-05-02T04:06:25.488Z,58.29
2023-05-02T04:08:54.627Z,58.07
2023-05-02T04:11:23.673Z,57.90
2023-05-02T04:13:53.660Z,57.85
2023-05-02T04:16:22.857Z,58.62
2023-05-02T04:18:52.057Z,59.25
2023-05-02T04:21:21.049Z,59.30
2023-05-02T04:23:50.130Z,59.29
2023-05-02T04:26:19.196Z,59.16
2023-05-02T04:28:48.248Z,58.95
2023-05-02T04:31:17.375Z,58.98
2023-05-02T04:33:46.493Z,59.47
2023-05-02T04:36:15.595Z,60.03
2023-05-02T04:38:44.661Z,59.87
2023-05-02T04:41:14.901Z,59.87
2023-05-02T04:43:44.014Z,59.91
2023-05-02T04:46:13.236Z,59.99
2023-05-02T04:48:42.361Z,59.94
2023-05-02T04:51:11.490Z,59.86
2023-05-02T04:53:40.535Z,59.72
2023-05-02T04:56:09.590Z,60.02
2023-05-02T04:58:38.643Z,59.93
2023-05-02T05:01:07.744Z,59.77
2023-05-02T05:03:37.102Z,59.93
2023-05-02T05:06:06.288Z,60.41
2023-05-02T05:08:35.372Z,59.80
2023-05-02T05:11:04.875Z,60.19
2023-05-02T05:13:33.946Z,59.81
2023-05-02T05:16:03.117Z,59.75
2023-05-02T05:18:32.230Z,60.25
2023-05-02T05:21:01.292Z,59.95
2023-05-02T05:23:30.656Z,60.15
2023-05-02T05:26:08.361Z,60.24
2023-05-02T05:28:37.423Z,60.17
2023-05-02T05:31:07.013Z,59.89
2023-05-02T05:33:36.273Z,60.01
2023-05-02T05:36:06.326Z,59.84
2023-05-02T05:38:35.407Z,59.74
2023-05-02T05:41:04.694Z,59.47
2023-05-02T05:43:34.653Z,59.36
2023-05-02T05:46:05.127Z,59.03
2023-05-02T05:48:34.168Z,58.78
2023-05-02T05:51:05.000Z,58.86
2023-05-02T05:53:34.169Z,58.33
2023-05-02T05:56:09.734Z,58.10
2023-05-02T05:58:39.391Z,57.99
2023-05-02T06:01:08.474Z,58.02
2023-05-02T06:03:37.612Z,57.65
2023-05-02T06:06:07.079Z,57.51
2023-05-02T06:08:36.371Z,57.50
2023-05-02T06:11:08.161Z,57.37
2023-05-02T06:13:37.772Z,57.02
2023-05-02T06:16:08.837Z,57.23
2023-05-02T06:18:37.938Z,57.10
2023-05-02T06:21:07.185Z,56.69
2023-05-02T06:23:39.363Z,56.61
2023-05-02T06:26:08.422Z,56.36
2023-05-02T06:28:37.651Z,56.26
2023-05-02T06:31:06.801Z,55.90
2023-05-02T06:33:36.010Z,55.74
2023-05-02T06:36:05.378Z,55.51
2023-05-02T06:38:34.447Z,55.96
2023-05-02T06:41:03.479Z,56.06
2023-05-02T06:43:32.514Z,55.53
2023-05-02T06:46:01.576Z,55.15
2023-05-02T06:48:32.444Z,55.18
2023-05-02T06:51:01.616Z,54.89
2023-05-02T06:53:32.906Z,54.64
2023-05-02T06:56:02.285Z,54.50
2023-05-02T06:58:31.773Z,54.33
2023-05-02T07:01:00.849Z,53.56
2023-05-02T07:03:30.013Z,52.02
2023-05-02T07:05:59.172Z,52.26
2023-05-02T07:08:28.252Z,52.10
2023-05-02T07:10:57.281Z,50.98
2023-05-02T07:13:26.438Z,51.74
2023-05-02T07:15:55.516Z,49.81
2023-05-02T07:18:24.611Z,49.66
2023-05-02T07:20:53.649Z,50.03
2023-05-02T07:23:22.819Z,48.90
2023-05-02T07:25:51.875Z,47.25
2023-05-02T07:28:20.979Z,47.48
2023-05-02T07:30:50.039Z,48.64
2023-05-02T07:33:19.271Z,48.22
2023-05-02T07:35:48.331Z,48.65
2023-05-02T07:38:17.386Z,48.38
2023-05-02T07:40:46.437Z,47.90
2023-05-02T07:43:15.414Z,47.62
2023-05-02T07:45:44.491Z,47.29
2023-05-02T07:48:13.787Z,47.51
2023-05-02T07:50:42.937Z,46.59
2023-05-02T07:53:12.222Z,47.43
2023-05-02T07:55:41.445Z,46.81
2023-05-02T07:58:10.585Z,46.69
2023-05-02T08:00:39.705Z,46.40
2023-05-02T08:03:08.805Z,46.80
2023-05-02T08:05:38.135Z,46.31
2023-05-02T08:08:07.275Z,46.40
2023-05-02T08:10:36.360Z,46.20
2023-05-02T08:13:05.412Z,46.78
2023-05-02T08:15:34.427Z,45.67
2023-05-02T08:18:03.644Z,44.46
2023-05-02T08:20:33.167Z,44.19
2023-05-02T08:23:02.474Z,44.82
2023-05-02T08:25:31.751Z,43.86
2023-05-02T08:28:01.033Z,43.06
2023-05-02T08:30:30.036Z,43.31
2023-05-02T08:32:59.151Z,43.91
2023-05-02T08:35:30.134Z,41.96
2023-05-02T08:37:59.291Z,40.79
2023-05-02T08:40:40.868Z,40.24
2023-05-02T08:43:11.470Z,40.57
2023-05-02T08:45:41.744Z,40.26
2023-05-02T08:48:12.019Z,41.08
2023-05-02T08:50:44.054Z,40.45
2023-05-02T08:53:13.160Z,41.70
2023-05-02T08:55:42.775Z,41.77
2023-05-02T08:58:15.292Z,41.44
2023-05-02T09:00:48.655Z,41.80
2023-05-02T09:03:23.949Z,41.05
2023-05-02T09:06:00.644Z,40.83
2023-05-02T09:08:29.750Z,40.21
2023-05-02T09:10:58.925Z,40.65
2023-05-02T09:13:35.328Z,40.59
2023-05-02T09:16:05.069Z,40.59
2023-05-02T09:18:36.257Z,40.16
2023-05-02T09:21:07.063Z,39.99
2023-05-02T09:23:37.536Z,39.71
2023-05-02T09:26:16.862Z,38.87
2023-05-02T09:28:46.573Z,39.48
2023-05-02T09:31:22.987Z,39.75
2023-05-02T09:34:08.190Z,38.83
2023-05-02T09:36:40.856Z,38.06
2023-05-02T09:39:11.313Z,38.69
2023-05-02T09:41:44.210Z,39.64
2023-05-02T09:44:14.209Z,39.91
2023-05-02T09:46:44.933Z,39.30
2023-05-02T09:49:14.183Z,38.69
2023-05-02T09:51:43.242Z,39.60
2023-05-02T09:54:12.648Z,39.72
2023-05-02T09:56:54.430Z,39.02
2023-05-02T09:59:23.907Z,37.45
2023-05-02T10:01:59.328Z,36.79
2023-05-02T10:04:30.029Z,38.11
2023-05-02T10:06:59.562Z,38.51
2023-05-02T10:09:29.536Z,37.08
2023-05-02T10:12:01.761Z,36.85
2023-05-02T10:14:31.748Z,37.47
2023-05-02T10:17:02.976Z,36.43
2023-05-02T10:19:37.190Z,37.53
2023-05-02T10:22:06.929Z,36.63
2023-05-02T10:24:36.374Z,36.93
2023-05-02T10:27:05.552Z,37.45
2023-05-02T10:29:35.167Z,37.27
2023-05-02T10:32:04.789Z,36.80
2023-05-02T10:34:33.932Z,37.44
2023-05-02T10:37:03.131Z,37.40
2023-05-02T10:39:32.387Z,36.54
2023-05-02T10:42:03.532Z,35.42
2023-05-02T10:44:36.557Z,36.27
2023-05-02T10:47:19.207Z,37.44
2023-05-02T10:49:51.737Z,36.75
2023-05-02T10:52:30.465Z,35.13
2023-05-02T10:55:15.196Z,36.17
2023-05-02T10:57:57.701Z,36.15
2023-05-02T11:00:29.563Z,36.94
2023-05-02T11:02:59.300Z,36.76
2023-05-02T11:08:31.484Z,35.50
2023-05-02T11:11:32.375Z,36.39
2023-05-02T11:14:01.460Z,36.93
2023-05-02T11:16:52.835Z,36.29
2023-05-02T11:19:22.421Z,36.87
2023-05-02T11:21:51.846Z,37.28
2023-05-02T11:24:39.497Z,37.48
2023-05-02T11:27:26.092Z,37.33
2023-05-02T11:29:55.729Z,37.09
2023-05-02T11:32:26.066Z,37.00
2023-05-02T11:34:55.340Z,37.11
2023-05-02T11:37:24.411Z,37.04
2023-05-02T11:40:09.984Z,37.36
2023-05-02T11:42:39.156Z,38.27
2023-05-02T11:45:10.786Z,38.91
2023-05-02T11:47:41.015Z,39.20
2023-05-02T11:50:10.607Z,39.27
2023-05-02T11:52:40.754Z,39.36
2023-05-02T11:55:12.210Z,39.82
2023-05-02T11:57:41.392Z,39.80
2023-05-02T12:00:11.405Z,39.74
2023-05-02T12:02:41.178Z,39.62
2023-05-02T12:05:13.622Z,39.63
2023-05-02T12:07:43.859Z,39.83
2023-05-02T12:10:13.645Z,39.86
2023-05-02T12:12:43.729Z,39.90
2023-05-02T12:15:13.188Z,39.51
2023-05-02T12:17:43.341Z,39.34
2023-05-02T12:20:14.843Z,39.93
2023-05-02T12:22:44.161Z,40.20
2023-05-02T12:25:13.331Z,40.59
2023-05-02T12:27:42.374Z,40.66
2023-05-02T12:30:25.738Z,40.25
2023-05-02T12:32:57.612Z,40.34
2023-05-02T12:35:27.587Z,40.92
2023-05-02T12:38:07.755Z,40.52
2023-05-02T12:40:36.951Z,40.55
2023-05-02T12:43:06.036Z,41.33
2023-05-02T12:45:35.088Z,41.60
2023-05-02T12:48:17.325Z,42.01
2023-05-02T12:50:46.461Z,42.67
2023-05-02T12:53:15.773Z,42.37
2023-05-02T12:55:44.843Z,43.14
2023-05-02T12:58:13.857Z,42.90
2023-05-02T13:00:45.463Z,42.50
2023-05-02T13:03:15.622Z,42.60
2023-05-02T13:05:44.693Z,42.38
2023-05-02T13:08:14.419Z,42.38
2023-05-02T13:10:43.702Z,42.32
2023-05-02T13:13:12.873Z,42.30
2023-05-02T13:15:41.881Z,42.55
2023-05-02T13:18:11.227Z,42.25
2023-05-02T13:20:40.401Z,42.31
2023-05-02T13:23:09.454Z,42.39
2023-05-02T13:25:38.741Z,42.77
2023-05-02T13:28:07.939Z,42.97
2023-05-02T13:30:37.059Z,43.08
2023-05-02T13:33:06.264Z,43.39
2023-05-02T13:35:35.506Z,43.67
2023-05-02T13:38:04.725Z,43.91
2023-05-02T13:40:33.858Z,43.95
2023-05-02T13:43:02.915Z,44.23
2023-05-02T13:45:32.079Z,44.19
2023-05-02T13:48:01.263Z,44.49
2023-05-02T13:50:30.349Z,44.78
2023-05-02T13:52:59.392Z,44.81
2023-05-02T13:55:35.472Z,45.30
2023-05-02T13:58:04.559Z,45.17
2023-05-02T14:00:33.623Z,45.19
2023-05-02T14:03:02.828Z,45.14
2023-05-02T14:05:32.011Z,45.01
2023-05-02T14:08:01.072Z,44.88
2023-05-02T14:10:30.170Z,44.71
2023-05-02T14:12:59.207Z,44.63
2023-05-02T14:15:28.418Z,44.81
2023-05-02T14:17:57.616Z,44.22
2023-05-02T14:20:26.759Z,44.49
2023-05-02T14:22:56.180Z,43.94
2023-05-02T14:25:25.265Z,43.75
2023-05-02T14:27:54.375Z,43.82
2023-05-02T14:30:23.820Z,43.72
2023-05-02T14:32:52.971Z,43.45
2023-05-02T14:35:22.249Z,43.36
2023-05-02T14:37:51.334Z,43.45
2023-05-02T14:40:20.463Z,42.97
2023-05-02T14:42:49.608Z,43.23
2023-05-02T14:45:18.730Z,43.36
2023-05-02T14:47:48.177Z,43.71
2023-05-02T14:50:17.632Z,43.74
2023-05-02T14:52:46.685Z,43.49
2023-05-02T14:55:22.323Z,43.71
2023-05-02T14:57:51.337Z,43.90
2023-05-02T15:00:20.607Z,44.04
2023-05-02T15:02:49.767Z,43.78
2023-05-02T15:05:19.129Z,43.66
2023-05-02T15:07:48.192Z,43.92
2023-05-02T15:10:17.281Z,44.20
2023-05-02T15:12:46.373Z,44.51
2023-05-02T15:15:15.523Z,44.72
2023-05-02T15:17:44.851Z,45.27
2023-05-02T15:20:14.233Z,45.86
2023-05-02T15:22:43.357Z,46.20
2023-05-02T15:25:12.460Z,45.92
2023-05-02T15:27:41.581Z,45.98
2023-05-02T15:30:12.824Z,46.00
2023-05-02T15:32:41.955Z,45.90
2023-05-02T15:35:11.074Z,45.79
2023-05-02T15:37:40.351Z,46.10
2023-05-02T15:40:10.255Z,45.98
2023-05-02T15:42:39.299Z,46.26
2023-05-02T15:45:11.099Z,46.68
2023-05-02T15:47:40.472Z,47.24
2023-05-02T15:50:11.627Z,47.54
2023-05-02T15:52:40.729Z,47.70
2023-05-02T15:55:10.059Z,47.87
2023-05-02T15:57:39.105Z,47.95
2023-05-02T16:00:10.870Z,48.29
2023-05-02T16:02:40.013Z,48.78
2023-05-02T16:05:09.531Z,48.96
2023-05-02T16:07:38.631Z,49.06
2023-05-02T16:10:09.384Z,49.01
2023-05-02T16:12:38.547Z,49.06
2023-05-02T16:15:09.275Z,49.29
2023-05-02T16:17:38.463Z,49.07
2023-05-02T16:20:09.655Z,48.94
2023-05-02T16:22:42.232Z,49.41
2023-05-02T16:25:11.364Z,49.17
2023-05-02T16:27:40.812Z,48.84
2023-05-02T16:30:13.099Z,49.57
2023-05-02T16:32:42.192Z,49.49
2023-05-02T16:35:11.443Z,49.22
2023-05-02T16:37:41.101Z,49.15
2023-05-02T16:40:10.753Z,49.37
2023-05-02T16:42:39.964Z,49.28
2023-05-02T16:45:09.618Z,49.48
2023-05-02T16:47:38.744Z,49.60
2023-05-02T16:50:08.769Z,49.33
2023-05-02T16:52:38.102Z,49.40
2023-05-02T16:55:07.846Z,49.20
2023-05-02T16:57:36.842Z,49.21
2023-05-02T17:00:07.099Z,49.53
2023-05-02T17:02:36.225Z,49.75
2023-05-02T17:05:07.683Z,49.88
2023-05-02T17:07:36.733Z,49.83
2023-05-02T17:10:06.562Z,50.33
2023-05-02T17:12:35.620Z,50.50
2023-05-02T17:15:06.567Z,50.56
2023-05-02T17:17:35.688Z,50.81
2023-05-02T17:20:06.945Z,50.96
2023-05-02T17:22:36.160Z,51.11
2023-05-02T17:25:05.572Z,51.53
2023-05-02T17:27:34.595Z,51.35
2023-05-02T17:30:04.277Z,51.55
2023-05-02T17:32:33.661Z,51.67
2023-05-02T17:35:03.072Z,51.93
2023-05-02T17:37:32.244Z,51.81
2023-05-02T17:40:01.690Z,51.14
2023-05-02T17:42:31.191Z,51.90
2023-05-02T17:45:00.325Z,51.44
2023-05-02T17:47:29.385Z,51.66
2023-05-02T17:49:58.580Z,51.41
2023-05-02T17:52:27.790Z,51.66
2023-05-02T17:54:56.878Z,51.53
2023-05-02T17:57:25.974Z,51.67
2023-05-02T17:59:55.114Z,51.91
2023-05-02T18:02:25.203Z,52.23
2023-05-02T18:04:54.508Z,52.17
2023-05-02T18:07:23.685Z,52.34
2023-05-02T18:09:52.823Z,52.48
2023-05-02T18:12:21.915Z,52.59
2023-05-02T18:14:51.755Z,52.53
2023-05-02T18:17:20.811Z,52.67
2023-05-02T18:19:50.065Z,52.51
2023-05-02T18:22:19.820Z,53.48
2023-05-02T18:24:49.898Z,52.92
2023-05-02T18:27:19.003Z,52.99
2023-05-02T18:29:48.306Z,53.56
2023-05-02T18:32:17.377Z,53.46
2023-05-02T18:34:46.427Z,53.35
2023-05-02T18:37:15.476Z,53.52
2023-05-02T18:39:44.542Z,53.38
2023-05-02T18:42:13.588Z,53.29
2023-05-02T18:44:42.685Z,53.42
2023-05-02T18:47:11.757Z,53.50
2023-05-02T18:49:40.842Z,53.29
2023-05-02T18:52:10.075Z,53.35
2023-05-02T18:54:39.170Z,53.53
2023-05-02T18:57:08.289Z,53.11
2023-05-02T18:59:37.343Z,53.08
2023-05-02T19:02:06.704Z,53.17
2023-05-02T19:04:35.852Z,52.52
2023-05-02T19:07:04.896Z,52.37
2023-05-02T19:09:34.004Z,52.31
2023-05-02T19:12:03.190Z,52.18
2023-05-02T19:14:32.233Z,52.19
2023-05-02T19:17:01.372Z,51.99
2023-05-02T19:19:30.424Z,52.17
2023-05-02T19:21:59.514Z,52.25
2023-05-02T19:24:28.598Z,52.42
2023-05-02T19:26:57.655Z,52.48
2023-05-02T19:29:26.758Z,52.58
2023-05-02T19:31:55.875Z,52.87
2023-05-02T19:34:24.956Z,52.84
2023-05-02T19:36:53.983Z,52.90
2023-05-02T19:39:23.116Z,53.07
2023-05-02T19:41:52.446Z,53.21
2023-05-02T19:44:21.524Z,53.27
2023-05-02T19:46:50.585Z,53.51
2023-05-02T19:49:19.585Z,53.51
2023-05-02T19:51:48.618Z,53.65
2023-05-02T19:54:17.708Z,53.70
2023-05-02T19:56:46.698Z,53.78
2023-05-02T19:59:15.782Z,53.86
2023-05-02T20:01:45.071Z,53.81
2023-05-02T20:04:14.286Z,54.13
2023-05-02T20:06:43.493Z,54.04
2023-05-02T20:09:12.698Z,54.02
2023-05-02T20:11:41.762Z,53.98
2023-05-02T20:14:10.804Z,54.03
2023-05-02T20:16:40.008Z,53.85
2023-05-02T20:19:09.066Z,54.03
2023-05-02T20:21:38.174Z,53.98
2023-05-02T20:24:08.131Z,53.91
2023-05-02T20:26:37.199Z,53.90
2023-05-02T20:29:06.216Z,53.93
2023-05-02T20:31:35.303Z,53.92
2023-05-02T20:34:04.497Z,53.96
2023-05-02T20:36:33.762Z,53.91
2023-05-02T20:39:02.841Z,54.10
2023-05-02T20:41:32.215Z,53.91
2023-05-02T20:44:01.290Z,53.92
2023-05-02T20:46:30.462Z,53.86
2023-05-02T20:48:59.635Z,53.98
2023-05-02T20:51:29.032Z,54.01
2023-05-02T20:53:58.176Z,53.88
2023-05-02T20:56:27.226Z,53.93
2023-05-02T20:58:56.297Z,53.95
2023-05-02T21:01:25.450Z,53.89
2023-05-02T21:03:54.613Z,53.98
2023-05-02T21:06:23.732Z,54.00
2023-05-02T21:08:52.913Z,53.85
2023-05-02T21:11:21.960Z,53.91
2023-05-02T21:13:51.066Z,54.16
2023-05-02T21:16:20.978Z,54.24
2023-05-02T21:18:50.096Z,54.07
2023-05-02T21:21:19.217Z,53.88
2023-05-02T21:23:48.367Z,53.71
2023-05-02T21:26:17.406Z,53.62
2023-05-02T21:28:46.404Z,53.60
2023-05-02T21:31:15.526Z,53.63
2023-05-02T21:33:44.859Z,53.80
2023-05-02T21:36:14.017Z,53.73
2023-05-02T21:38:43.065Z,53.90
2023-05-02T21:41:12.146Z,53.91
2023-05-02T21:43:41.195Z,54.03
2023-05-02T21:46:11.913Z,54.08
2023-05-02T21:48:41.128Z,54.12
2023-05-02T21:51:10.832Z,54.12
2023-05-02T21:53:40.092Z,54.33
2023-05-02T21:56:09.952Z,54.30
2023-05-02T21:58:39.100Z,54.37
2023-05-02T22:01:08.454Z,54.33
2023-05-02T22:03:37.583Z,54.38
2023-05-02T22:06:07.059Z,54.42
2023-05-02T22:08:36.288Z,54.50
2023-05-02T22:11:09.089Z,54.60
2023-05-02T22:13:38.200Z,54.54
2023-05-02T22:16:07.579Z,54.61
2023-05-02T22:18:37.818Z,54.82
2023-05-02T22:21:06.994Z,54.76
2023-05-02T22:23:36.051Z,54.88
2023-05-02T22:26:05.147Z,55.08
2023-05-02T22:28:34.229Z,55.08
2023-05-02T22:31:03.340Z,55.21
2023-05-02T22:33:32.611Z,55.25
2023-05-02T22:36:02.212Z,55.29
2023-05-02T22:38:31.272Z,55.37
2023-05-02T22:41:00.849Z,55.32
2023-05-02T22:43:30.148Z,55.51
2023-05-02T22:45:59.303Z,55.72
2023-05-02T22:48:28.590Z,55.54
2023-05-02T22:50:57.680Z,55.77
2023-05-02T22:53:26.660Z,55.73
2023-05-02T22:55:55.750Z,55.78
2023-05-02T22:58:24.892Z,55.85
2023-05-02T23:00:53.936Z,55.94
2023-05-02T23:03:23.036Z,55.94
2023-05-02T23:05:52.173Z,56.03
2023-05-02T23:08:21.250Z,56.11
2023-05-02T23:10:50.358Z,56.36
2023-05-02T23:13:19.519Z,56.24
2023-05-02T23:15:52.045Z,56.19
2023-05-02T23:18:21.197Z,56.24
2023-05-02T23:20:55.264Z,56.48
2023-05-02T23:23:24.632Z,56.47
2023-05-02T23:27:30.497Z,56.58
2023-05-02T23:29:59.692Z,56.65
2023-05-02T23:32:28.911Z,56.63
2023-05-02T23:34:58.212Z,56.60
2023-05-02T23:37:27.459Z,56.69
2023-05-02T23:39:59.573Z,56.87
2023-05-02T23:42:29.573Z,57.00
2023-05-02T23:44:58.627Z,56.86
2023-05-02T23:47:28.011Z,57.06
2023-05-02T23:49:57.139Z,57.17
2023-05-02T23:52:26.231Z,57.04
2023-05-02T23:54:55.290Z,57.21
2023-05-02T23:57:24.387Z,57.07
2023-05-02T23:59:53.560Z,57.22
